createdAt,value
2019-05-15T00:02:04.883Z,11.80
2019-05-15T00:04:12.219Z,11.27
2019-05-15T00:06:19.558Z,10.40
2019-05-15T00:08:28.781Z,10.77
2019-05-15T00:10:38.577Z,10.70
2019-05-15T00:12:45.231Z,11.20
2019-05-15T00:14:52.612Z,10.60
2019-05-15T00:16:59.935Z,10.37
2019-05-15T00:19:08.631Z,10.80
2019-05-15T00:21:17.994Z,11.07
2019-05-15T00:23:25.409Z,10.20
2019-05-15T00:25:33.495Z,10.30
2019-05-15T00:27:40.920Z,10.70
2019-05-15T00:29:48.729Z,10.03
2019-05-15T00:31:58.776Z,10.23
2019-05-15T00:34:05.525Z,10.27
2019-05-15T00:36:12.918Z,10.53
2019-05-15T00:38:20.368Z,10.43
2019-05-15T00:40:28.878Z,11.10
2019-05-15T00:42:38.509Z,10.60
2019-05-15T00:44:45.449Z,10.80
2019-05-15T00:46:52.797Z,10.57
2019-05-15T00:49:00.165Z,11.83
2019-05-15T00:51:08.450Z,11.33
2019-05-15T00:53:15.944Z,11.73
2019-05-15T00:55:23.365Z,11.43
2019-05-15T00:57:30.727Z,11.60
2019-05-15T00:59:39.004Z,10.40
2019-05-15T01:01:48.739Z,10.63
2019-05-15T01:03:58.590Z,10.23
2019-05-15T01:06:08.359Z,11.03
2019-05-15T01:08:15.988Z,10.57
2019-05-15T01:10:24.384Z,10.73
2019-05-15T01:12:31.835Z,11.47
2019-05-15T01:14:39.246Z,11.03
2019-05-15T01:16:48.805Z,10.33
2019-05-15T01:18:55.701Z,10.50
2019-05-15T01:21:03.103Z,11.03
2019-05-15T01:23:10.584Z,12.20
2019-05-15T01:25:18.628Z,11.13
2019-05-15T01:27:26.099Z,10.57
2019-05-15T01:29:41.803Z,10.70
2019-05-15T01:31:42.551Z,11.20
2019-05-15T01:33:49.890Z,11.03
2019-05-15T01:35:59.071Z,10.53
2019-05-15T01:38:08.189Z,11.37
2019-05-15T01:40:18.106Z,12.30
2019-05-15T01:42:25.057Z,11.13
2019-05-15T01:44:32.404Z,11.50
2019-05-15T01:46:39.792Z,11.33
2019-05-15T01:48:49.286Z,11.27
2019-05-15T01:50:58.389Z,11.20
2019-05-15T01:53:05.329Z,12.00
2019-05-15T01:55:14.299Z,11.67
2019-05-15T01:57:21.702Z,12.27
2019-05-15T01:59:29.031Z,12.53
2019-05-15T02:01:38.924Z,12.20
2019-05-15T02:03:45.706Z,11.07
2019-05-15T02:05:53.512Z,11.43
2019-05-15T02:08:00.835Z,11.47
2019-05-15T02:10:09.530Z,11.40
2019-05-15T02:12:18.997Z,10.43
2019-05-15T02:14:28.335Z,11.20
2019-05-15T02:16:35.269Z,11.23
2019-05-15T02:18:42.735Z,11.07
2019-05-15T02:20:50.112Z,12.23
2019-05-15T02:22:59.099Z,11.43
2019-05-15T02:25:08.549Z,11.93
2019-05-15T02:27:18.619Z,11.13
2019-05-15T02:29:25.480Z,11.60
2019-05-15T02:31:32.852Z,12.20
2019-05-15T02:33:40.434Z,11.73
2019-05-15T02:35:50.185Z,12.73
2019-05-15T02:37:59.764Z,12.00
2019-05-15T02:40:09.864Z,12.10
2019-05-15T02:42:19.040Z,11.83
2019-05-15T02:44:25.434Z,11.47
2019-05-15T02:46:32.921Z,10.50
2019-05-15T02:48:41.197Z,10.30
2019-05-15T02:50:50.122Z,11.33
2019-05-15T02:53:00.563Z,9.80
2019-05-15T02:55:09.337Z,10.87
2019-05-15T02:57:19.219Z,10.03
2019-05-15T02:59:29.013Z,10.37
2019-05-15T03:01:35.904Z,10.37
2019-05-15T03:03:43.259Z,9.10
2019-05-15T03:05:50.641Z,9.77
2019-05-15T03:07:59.420Z,9.23
2019-05-15T03:10:09.369Z,9.77
2019-05-15T03:12:19.549Z,9.63
2019-05-15T03:14:28.890Z,9.80
2019-05-15T03:16:35.037Z,8.67
2019-05-15T03:18:42.604Z,9.90
2019-05-15T03:20:50.413Z,9.70
2019-05-15T03:22:59.718Z,9.57
2019-05-15T03:25:10.585Z,9.67
2019-05-15T03:27:19.684Z,9.60
2019-05-15T03:29:29.031Z,9.93
2019-05-15T03:31:53.010Z,9.57
2019-05-15T03:33:47.018Z,10.03
2019-05-15T03:35:55.005Z,9.47
2019-05-15T03:38:02.619Z,9.60
2019-05-15T03:40:10.905Z,9.80
2019-05-15T03:42:19.077Z,9.27
2019-05-15T03:44:28.712Z,10.07
2019-05-15T03:46:39.601Z,10.00
2019-05-15T03:48:48.534Z,9.87
2019-05-15T03:50:54.734Z,9.53
2019-05-15T03:53:04.773Z,9.30
2019-05-15T03:55:13.011Z,9.40
2019-05-15T03:57:23.195Z,9.27
2019-05-15T03:59:29.713Z,9.07
2019-05-15T04:01:43.080Z,9.53
2019-05-15T04:03:49.492Z,9.83
2019-05-15T04:05:55.927Z,9.47
2019-05-15T04:08:03.511Z,10.27
2019-05-15T04:10:11.787Z,9.20
2019-05-15T04:12:19.755Z,9.53
2019-05-15T04:14:29.589Z,9.37
2019-05-15T04:16:39.094Z,9.13
2019-05-15T04:18:48.833Z,9.30
2019-05-15T04:20:55.106Z,9.33
2019-05-15T04:23:02.539Z,9.80
2019-05-15T04:25:11.066Z,9.63
2019-05-15T04:27:21.398Z,9.27
2019-05-15T04:29:29.094Z,9.70
2019-05-15T04:31:54.524Z,8.83
2019-05-15T04:33:48.881Z,8.90
2019-05-15T04:35:55.006Z,9.67
2019-05-15T04:38:02.540Z,9.17
2019-05-15T04:40:10.212Z,8.83
2019-05-15T04:42:20.108Z,9.10
2019-05-15T04:44:28.944Z,8.97
2019-05-15T04:46:38.954Z,9.93
2019-05-15T04:48:45.190Z,10.10
2019-05-15T04:50:53.038Z,10.07
2019-05-15T04:53:00.449Z,9.77
2019-05-15T04:55:10.066Z,9.43
2019-05-15T04:57:19.425Z,9.63
2019-05-15T04:59:29.882Z,8.57
2019-05-15T05:01:39.864Z,9.10
2019-05-15T05:03:45.564Z,8.47
2019-05-15T05:05:53.651Z,9.23
2019-05-15T05:08:01.545Z,9.10
2019-05-15T05:10:10.061Z,9.53
2019-05-15T05:12:19.304Z,9.07
2019-05-15T05:14:28.567Z,9.10
2019-05-15T05:16:39.209Z,7.73
2019-05-15T05:18:48.569Z,8.60
2019-05-15T05:20:57.603Z,8.77
2019-05-15T05:23:04.761Z,8.77
2019-05-15T05:25:12.349Z,8.07
2019-05-15T05:27:19.723Z,9.33
2019-05-15T05:29:28.033Z,8.30
2019-05-15T05:31:38.858Z,9.03
2019-05-15T05:33:45.691Z,8.63
2019-05-15T05:35:53.129Z,7.63
2019-05-15T05:38:00.554Z,7.57
2019-05-15T05:40:08.621Z,8.37
2019-05-15T05:42:18.369Z,7.83
2019-05-15T05:44:25.570Z,7.93
2019-05-15T05:46:32.929Z,7.63
2019-05-15T05:48:40.401Z,7.37
2019-05-15T05:50:49.500Z,7.80
2019-05-15T05:52:57.993Z,7.63
2019-05-15T05:55:05.713Z,8.73
2019-05-15T05:57:13.154Z,8.10
2019-05-15T05:59:20.608Z,7.77
2019-05-15T06:01:28.357Z,7.90
2019-05-15T06:03:35.843Z,8.07
2019-05-15T06:05:43.298Z,8.33
2019-05-15T06:07:50.830Z,8.00
2019-05-15T06:09:58.406Z,8.03
2019-05-15T06:12:07.811Z,8.13
2019-05-15T06:14:15.092Z,8.10
2019-05-15T06:16:22.535Z,7.67
2019-05-15T06:18:30.109Z,7.30
2019-05-15T06:20:39.533Z,7.53
2019-05-15T06:22:47.901Z,7.77
2019-05-15T06:24:57.817Z,7.53
2019-05-15T06:27:04.728Z,7.47
2019-05-15T06:29:12.098Z,8.10
2019-05-15T06:31:19.470Z,7.27
2019-05-15T06:33:27.819Z,7.20
2019-05-15T06:35:35.259Z,6.60
2019-05-15T06:37:42.623Z,7.53
2019-05-15T06:39:50.001Z,7.00
2019-05-15T06:41:58.797Z,6.67
2019-05-15T06:44:07.969Z,7.83
2019-05-15T06:46:18.683Z,7.30
2019-05-15T06:48:25.674Z,8.33
2019-05-15T06:50:41.763Z,6.47
2019-05-15T06:52:49.193Z,8.68
2019-05-15T06:54:59.092Z,8.10
2019-05-15T06:57:05.694Z,8.33
2019-05-15T06:59:13.054Z,8.80
2019-05-15T07:01:20.492Z,8.17
2019-05-15T07:03:29.373Z,7.70
2019-05-15T07:05:38.635Z,8.73
2019-05-15T07:07:48.692Z,8.27
2019-05-15T07:09:58.028Z,8.53
2019-05-15T07:12:04.727Z,7.87
2019-05-15T07:14:12.339Z,8.00
2019-05-15T07:16:19.679Z,8.63
2019-05-15T07:18:28.377Z,8.80
2019-05-15T07:20:35.951Z,7.73
2019-05-15T07:22:43.346Z,8.03
2019-05-15T07:24:50.783Z,8.33
2019-05-15T07:26:59.113Z,8.87
2019-05-15T07:29:07.918Z,8.90
2019-05-15T07:31:15.391Z,8.30
2019-05-15T07:33:35.864Z,8.37
2019-05-15T07:35:31.914Z,8.60
2019-05-15T07:37:39.424Z,8.23
2019-05-15T07:39:48.828Z,8.47
2019-05-15T07:41:57.811Z,8.33
2019-05-15T07:44:07.811Z,8.00
2019-05-15T07:46:14.543Z,9.20
2019-05-15T07:48:22.115Z,8.73
2019-05-15T07:50:30.015Z,8.27
2019-05-15T07:52:39.422Z,7.73
2019-05-15T07:54:48.817Z,8.70
2019-05-15T07:56:58.163Z,8.37
2019-05-15T07:59:07.908Z,8.73
2019-05-15T08:01:14.981Z,8.73
2019-05-15T08:03:22.467Z,8.00
2019-05-15T08:05:30.002Z,9.47
2019-05-15T08:07:38.898Z,8.63
2019-05-15T08:09:48.617Z,8.07
2019-05-15T08:11:55.741Z,8.47
2019-05-15T08:14:03.751Z,8.90
2019-05-15T08:16:11.782Z,8.97
2019-05-15T08:18:19.559Z,8.83
2019-05-15T08:20:28.938Z,9.40
2019-05-15T08:22:38.334Z,9.63
2019-05-15T08:24:48.005Z,9.47
2019-05-15T08:26:54.753Z,11.10
2019-05-15T08:29:02.254Z,10.07
2019-05-15T08:31:10.573Z,11.43
2019-05-15T08:33:18.273Z,13.17
2019-05-15T08:35:25.819Z,14.03
2019-05-15T08:37:33.337Z,12.10
2019-05-15T08:39:40.845Z,13.80
2019-05-15T08:41:48.552Z,13.23
2019-05-15T08:43:57.971Z,12.33
2019-05-15T08:46:05.208Z,11.77
2019-05-15T08:48:21.767Z,10.67
2019-05-15T08:50:41.843Z,9.43
2019-05-15T08:52:49.849Z,10.03
2019-05-15T08:54:59.123Z,13.90
2019-05-15T08:57:08.496Z,15.93
2019-05-15T08:59:18.590Z,16.17
2019-05-15T09:01:25.422Z,16.07
2019-05-15T09:03:34.779Z,15.47
2019-05-15T09:05:42.399Z,14.43
2019-05-15T09:07:49.819Z,13.17
2019-05-15T09:09:58.043Z,17.50
2019-05-15T09:12:08.115Z,20.70
2019-05-15T09:14:14.730Z,19.23
2019-05-15T09:16:22.150Z,20.57
2019-05-15T09:18:29.576Z,18.13
2019-05-15T09:20:38.334Z,15.57
2019-05-15T09:22:45.952Z,17.83
2019-05-15T09:24:53.441Z,11.93
2019-05-15T09:27:00.998Z,12.73
2019-05-15T09:29:09.322Z,11.93
2019-05-15T09:31:19.293Z,12.47
2019-05-15T09:33:28.434Z,15.60
2019-05-15T09:35:35.179Z,15.50
2019-05-15T09:37:42.938Z,17.80
2019-05-15T09:39:50.997Z,17.93
2019-05-15T09:41:58.577Z,17.13
2019-05-15T09:44:08.012Z,17.47
2019-05-15T09:46:15.567Z,21.70
2019-05-15T09:48:22.976Z,19.80
2019-05-15T09:50:30.424Z,21.50
2019-05-15T09:52:38.836Z,22.13
2019-05-15T09:54:48.686Z,21.80
2019-05-15T09:56:55.711Z,20.97
2019-05-15T09:59:04.860Z,19.23
2019-05-15T10:01:12.843Z,16.00
2019-05-15T10:03:20.422Z,17.43
2019-05-15T10:05:28.190Z,19.53
2019-05-15T10:07:35.912Z,21.20
2019-05-15T10:09:43.382Z,21.30
2019-05-15T10:11:50.989Z,22.07
2019-05-15T10:13:58.654Z,21.30
2019-05-15T10:16:08.366Z,20.20
2019-05-15T10:18:15.661Z,15.97
2019-05-15T10:20:23.279Z,17.30
2019-05-15T10:22:30.750Z,16.73
2019-05-15T10:24:38.189Z,16.73
2019-05-15T10:26:45.548Z,14.87
2019-05-15T10:28:52.963Z,12.10
2019-05-15T10:31:00.477Z,11.20
2019-05-15T10:33:08.674Z,11.23
2019-05-15T10:35:25.770Z,13.77
2019-05-15T10:37:28.267Z,12.70
2019-05-15T10:39:34.792Z,11.13
2019-05-15T10:41:42.337Z,18.47
2019-05-15T10:43:56.536Z,17.47
2019-05-15T10:45:59.040Z,15.27
2019-05-15T10:48:09.273Z,12.23
2019-05-15T10:50:19.003Z,15.33
2019-05-15T10:52:25.924Z,14.80
2019-05-15T10:54:33.576Z,12.97
2019-05-15T10:56:40.992Z,16.77
2019-05-15T10:58:50.577Z,15.53
2019-05-15T11:01:02.118Z,14.23
2019-05-15T11:03:08.877Z,14.40
2019-05-15T11:05:17.985Z,15.37
2019-05-15T11:07:28.278Z,15.77
2019-05-15T11:09:34.837Z,13.17
2019-05-15T11:11:42.395Z,11.53
2019-05-15T11:13:49.893Z,11.17
2019-05-15T11:15:57.463Z,7.93
2019-05-15T11:18:05.146Z,6.90
2019-05-15T11:20:13.255Z,6.03
2019-05-15T11:22:21.136Z,5.87
2019-05-15T11:24:32.199Z,5.20
2019-05-15T11:26:39.057Z,4.10
2019-05-15T11:28:49.465Z,4.50
2019-05-15T11:30:59.169Z,4.00
2019-05-15T11:33:05.443Z,4.33
2019-05-15T11:35:13.763Z,4.60
2019-05-15T11:37:21.403Z,8.50
2019-05-15T11:39:29.051Z,6.90
2019-05-15T11:41:38.692Z,7.73
2019-05-15T11:43:45.943Z,8.27
2019-05-15T11:45:53.356Z,10.17
2019-05-15T11:48:01.128Z,11.67
2019-05-15T11:50:09.912Z,12.07
2019-05-15T11:52:18.826Z,13.13
2019-05-15T11:54:28.288Z,10.83
2019-05-15T11:56:38.937Z,12.33
2019-05-15T11:58:45.610Z,11.73
2019-05-15T12:00:53.290Z,12.13
2019-05-15T12:03:01.384Z,12.50
2019-05-15T12:05:12.205Z,13.27
2019-05-15T12:07:19.737Z,13.13
2019-05-15T12:09:28.252Z,11.87
2019-05-15T12:11:37.932Z,11.50
2019-05-15T12:13:46.415Z,10.93
2019-05-15T12:15:54.473Z,29.87
2019-05-15T12:18:02.071Z,12.40
2019-05-15T12:20:11.096Z,12.77
2019-05-15T12:22:18.896Z,13.37
2019-05-15T12:24:32.834Z,12.93
2019-05-15T12:26:39.239Z,11.63
2019-05-15T12:28:49.046Z,11.83
2019-05-15T12:30:59.561Z,10.83
2019-05-15T12:33:09.267Z,11.17
2019-05-15T12:35:20.501Z,11.63
2019-05-15T12:37:28.491Z,12.27
2019-05-15T12:39:40.617Z,11.97
2019-05-15T13:01:17.025Z,7.77
2019-05-15T13:03:23.328Z,7.90
2019-05-15T13:05:32.551Z,7.77
2019-05-15T13:07:40.494Z,7.93
2019-05-15T13:09:50.532Z,41.90
2019-05-15T13:11:58.243Z,7.57
2019-05-15T13:14:08.146Z,7.10
2019-05-15T13:16:15.354Z,6.77
2019-05-15T13:18:22.833Z,7.13
2019-05-15T13:20:30.440Z,7.60
2019-05-15T13:22:39.341Z,8.90
2019-05-15T13:24:48.242Z,8.47
2019-05-15T13:26:58.216Z,8.13
2019-05-15T13:29:05.823Z,7.53
2019-05-15T13:31:13.478Z,8.37
2019-05-15T13:33:21.075Z,7.90
2019-05-15T13:35:29.081Z,8.30
2019-05-15T13:37:38.850Z,8.97
2019-05-15T13:39:48.393Z,9.17
2019-05-15T13:41:55.497Z,9.50
2019-05-15T13:44:03.214Z,8.40
2019-05-15T13:46:10.784Z,9.40
2019-05-15T13:48:19.937Z,7.53
2019-05-15T13:50:28.587Z,7.50
2019-05-15T13:52:39.206Z,7.87
2019-05-15T13:54:48.376Z,7.60
2019-05-15T13:56:58.057Z,8.00
2019-05-15T13:59:07.877Z,7.40
2019-05-15T14:01:15.436Z,6.83
2019-05-15T14:03:23.132Z,7.00
2019-05-15T14:05:30.955Z,6.40
2019-05-15T14:07:49.024Z,6.17
2019-05-15T14:09:48.997Z,5.87
2019-05-15T14:11:59.438Z,5.83
2019-05-15T14:14:06.462Z,5.40
2019-05-15T14:16:14.507Z,4.87
2019-05-15T14:18:22.171Z,4.93
2019-05-15T14:20:30.207Z,4.47
2019-05-15T14:22:38.946Z,5.13
2019-05-15T14:24:48.882Z,6.30
2019-05-15T14:26:59.149Z,6.00
2019-05-15T14:29:08.846Z,5.80
2019-05-15T14:31:17.760Z,5.73
2019-05-15T14:33:24.842Z,13.50
2019-05-15T14:35:33.671Z,6.60
2019-05-15T14:37:41.548Z,6.07
2019-05-15T14:39:52.281Z,5.73
2019-05-15T14:41:58.573Z,6.17
2019-05-15T14:46:15.845Z,6.30
2019-05-15T14:48:23.513Z,5.53
2019-05-15T14:50:31.297Z,5.97
2019-05-15T14:52:39.037Z,5.23
2019-05-15T14:54:48.996Z,5.63
2019-05-15T14:56:58.111Z,5.47
2019-05-15T14:59:06.112Z,5.33
2019-05-15T15:01:14.206Z,5.30
2019-05-15T15:03:22.368Z,5.90
2019-05-15T15:05:31.782Z,6.13
2019-05-15T15:07:40.341Z,6.17
2019-05-15T15:09:48.124Z,6.47
2019-05-15T15:11:55.691Z,6.37
2019-05-15T15:14:04.763Z,7.03
2019-05-15T15:16:12.445Z,7.27
2019-05-15T15:18:20.686Z,6.73
2019-05-15T15:20:28.762Z,7.13
2019-05-15T15:22:39.127Z,6.33
2019-05-15T15:24:48.122Z,6.80
2019-05-15T15:26:55.380Z,7.23
2019-05-15T15:29:03.569Z,6.33
2019-05-15T15:31:11.310Z,7.40
2019-05-15T15:33:19.245Z,6.63
2019-05-15T15:35:28.896Z,6.27
2019-05-15T15:37:38.179Z,7.23
2019-05-15T15:39:48.198Z,7.73
2019-05-15T15:41:57.765Z,6.90
2019-05-15T15:44:08.195Z,7.23
2019-05-15T15:46:14.971Z,6.40
2019-05-15T15:48:22.788Z,5.50
2019-05-15T15:50:30.364Z,5.30
2019-05-15T15:52:38.544Z,6.20
2019-05-15T15:54:47.198Z,6.30
2019-05-15T15:56:55.222Z,7.00
2019-05-15T15:59:02.945Z,6.57
2019-05-15T16:01:10.893Z,5.47
2019-05-15T16:03:19.503Z,5.77
2019-05-15T16:05:29.114Z,6.13
2019-05-15T16:07:38.032Z,5.97
2019-05-15T16:09:48.164Z,5.37
2019-05-15T16:11:55.107Z,4.97
2019-05-15T16:14:02.947Z,5.77
2019-05-15T16:16:10.445Z,5.43
2019-05-15T16:18:18.502Z,5.63
2019-05-15T16:20:28.676Z,5.63
2019-05-15T16:22:38.159Z,5.77
2019-05-15T16:24:48.997Z,5.90
2019-05-15T16:26:58.008Z,5.43
2019-05-15T16:29:08.544Z,6.63
2019-05-15T16:31:15.596Z,6.00
2019-05-15T16:33:23.663Z,5.83
2019-05-15T16:35:31.246Z,5.63
2019-05-15T16:37:39.333Z,5.50
2019-05-15T16:39:48.791Z,5.90
2019-05-15T16:41:59.334Z,6.10
2019-05-15T16:44:08.584Z,6.90
2019-05-15T16:46:19.294Z,6.43
2019-05-15T16:48:29.073Z,6.60
2019-05-15T16:50:38.176Z,5.70
2019-05-15T16:52:45.956Z,6.33
2019-05-15T16:54:53.969Z,6.70
2019-05-15T16:57:01.520Z,6.37
2019-05-15T16:59:09.353Z,6.10
2019-05-15T17:01:18.761Z,6.37
2019-05-15T17:03:28.696Z,7.17
2019-05-15T17:05:38.216Z,6.40
2019-05-15T17:07:45.404Z,8.10
2019-05-15T17:09:53.171Z,8.30
2019-05-15T17:12:01.729Z,9.53
2019-05-15T17:14:10.153Z,10.50
2019-05-15T17:16:18.700Z,10.50
2019-05-15T17:18:26.653Z,11.13
2019-05-15T17:20:34.198Z,11.57
2019-05-15T17:22:41.844Z,11.60
2019-05-15T17:24:49.538Z,12.33
2019-05-15T17:26:59.555Z,12.97
2019-05-15T17:29:08.888Z,12.97
2019-05-15T17:31:18.111Z,12.90
2019-05-15T17:33:28.377Z,12.90
2019-05-15T17:35:37.900Z,13.70
2019-05-15T17:37:45.209Z,13.63
2019-05-15T17:39:52.703Z,13.60
2019-05-15T17:42:00.976Z,13.73
2019-05-15T17:44:09.372Z,14.10
2019-05-15T17:46:18.531Z,14.77
2019-05-15T17:48:28.608Z,15.03
2019-05-15T17:50:45.944Z,14.87
2019-05-15T17:52:48.932Z,15.57
2019-05-15T17:54:56.119Z,15.00
2019-05-15T17:57:04.294Z,13.97
2019-05-15T17:59:13.019Z,14.90
2019-05-15T18:01:21.918Z,14.33
2019-05-15T18:03:30.206Z,14.97
2019-05-15T18:05:39.307Z,14.30
2019-05-15T18:07:48.812Z,13.97
2019-05-15T18:09:58.957Z,14.47
2019-05-15T18:12:10.974Z,14.47
2019-05-15T18:14:15.682Z,14.77
2019-05-15T18:16:23.519Z,14.83
2019-05-15T18:18:32.671Z,14.83
2019-05-15T18:20:40.236Z,14.83
2019-05-15T18:22:48.217Z,13.97
2019-05-15T18:24:58.110Z,14.50
2019-05-15T18:27:07.867Z,14.53
2019-05-15T18:29:15.002Z,14.30
2019-05-15T18:31:23.766Z,14.53
2019-05-15T18:33:31.821Z,15.57
2019-05-15T18:35:42.088Z,15.33
2019-05-15T18:37:50.486Z,14.77
2019-05-15T18:40:05.457Z,15.30
2019-05-15T18:42:09.007Z,15.13
2019-05-15T18:44:18.908Z,14.90
2019-05-15T18:46:28.732Z,14.00
2019-05-15T18:48:37.902Z,15.77
2019-05-15T18:50:48.185Z,14.17
2019-05-15T18:52:58.123Z,15.20
2019-05-15T18:55:05.127Z,14.87
2019-05-15T18:57:13.619Z,13.80
2019-05-15T18:59:21.582Z,14.80
2019-05-15T19:01:30.516Z,13.50
2019-05-15T19:03:38.632Z,14.30
2019-05-15T19:05:47.717Z,13.43
2019-05-15T19:07:57.725Z,12.77
2019-05-15T19:10:05.209Z,13.10
2019-05-15T19:12:13.255Z,14.23
2019-05-15T19:14:22.503Z,14.00
2019-05-15T19:16:31.791Z,13.57
2019-05-15T19:18:39.419Z,13.30
2019-05-15T19:20:48.659Z,14.30
2019-05-15T19:22:58.719Z,13.87
2019-05-15T19:25:08.595Z,13.57
2019-05-15T19:27:15.527Z,13.37
2019-05-15T19:29:23.190Z,13.47
2019-05-15T19:31:31.256Z,13.30
2019-05-15T19:33:41.129Z,12.87
2019-05-15T19:35:48.561Z,13.20
2019-05-15T19:37:58.726Z,12.37
2019-05-15T19:40:08.612Z,12.97
2019-05-15T19:42:18.103Z,13.53
2019-05-15T19:44:28.362Z,13.40
2019-05-15T19:46:38.508Z,13.53
2019-05-15T19:48:46.014Z,13.80
2019-05-15T19:50:54.805Z,13.40
2019-05-15T19:53:02.743Z,14.30
2019-05-15T19:55:11.655Z,14.57
2019-05-15T19:57:21.152Z,14.33
2019-05-15T19:59:32.603Z,15.57
2019-05-15T20:01:40.654Z,15.20
2019-05-15T20:03:52.987Z,15.20
2019-05-15T20:06:01.351Z,14.50
2019-05-15T20:08:08.572Z,14.57
2019-05-15T20:10:18.693Z,15.40
2019-05-15T20:12:27.921Z,13.67
2019-05-15T20:14:38.182Z,13.57
2019-05-15T20:16:47.971Z,13.97
2019-05-15T20:18:55.181Z,14.23
2019-05-15T20:21:03.158Z,14.07
2019-05-15T20:23:11.104Z,13.23
2019-05-15T20:25:19.179Z,13.63
2019-05-15T20:27:28.259Z,12.87
2019-05-15T20:29:38.213Z,14.03
2019-05-15T20:31:48.207Z,13.30
2019-05-15T20:34:03.263Z,13.30
2019-05-15T20:36:04.883Z,13.57
2019-05-15T20:38:12.924Z,13.37
2019-05-15T20:40:20.834Z,12.73
2019-05-15T20:42:28.567Z,14.67
2019-05-15T20:44:37.923Z,14.07
2019-05-15T20:46:48.442Z,41.10
2019-05-15T20:48:55.208Z,14.90
2019-05-15T20:51:03.514Z,14.20
2019-05-15T20:53:12.685Z,14.50
2019-05-15T20:55:20.505Z,14.23
2019-05-15T20:57:28.547Z,14.37
2019-05-15T20:59:38.565Z,14.07
2019-05-15T21:01:48.303Z,14.20
2019-05-15T21:03:55.732Z,14.03
2019-05-15T21:06:03.612Z,14.57
2019-05-15T21:08:11.414Z,14.73
2019-05-15T21:10:21.838Z,14.67
2019-05-15T21:12:29.924Z,14.27
2019-05-15T21:14:40.170Z,14.13
2019-05-15T21:16:48.555Z,14.47
2019-05-15T21:18:57.723Z,14.20
2019-05-15T21:21:10.250Z,15.13
2019-05-15T21:23:18.123Z,14.13
2019-05-15T21:25:25.205Z,15.00
2019-05-15T21:27:33.680Z,15.20
2019-05-15T21:29:41.799Z,15.97
2019-05-15T21:31:49.330Z,14.97
2019-05-15T21:33:58.740Z,15.63
2019-05-15T21:36:07.914Z,15.43
2019-05-15T21:38:18.476Z,14.80
2019-05-15T21:40:28.006Z,14.97
2019-05-15T21:42:39.155Z,15.00
2019-05-15T21:44:45.990Z,15.90
2019-05-15T21:46:53.679Z,15.47
2019-05-15T21:49:01.092Z,15.93
2019-05-15T21:51:11.675Z,15.47
2019-05-15T21:53:19.880Z,15.27
2019-05-15T21:55:28.855Z,15.00
2019-05-15T21:57:39.959Z,15.37
2019-05-15T21:59:46.160Z,16.17
2019-05-15T22:01:54.135Z,15.03
2019-05-15T22:04:02.490Z,15.43
2019-05-15T22:06:10.328Z,15.13
2019-05-15T22:11:57.495Z,15.57
2019-05-15T22:14:03.757Z,15.40
2019-05-15T22:16:11.882Z,15.50
2019-05-15T22:18:19.712Z,15.13
2019-05-15T22:20:30.220Z,14.57
2019-05-15T22:22:36.699Z,15.57
2019-05-15T22:24:44.356Z,15.70
2019-05-15T22:26:51.853Z,14.73
2019-05-15T22:28:59.718Z,14.30
2019-05-15T22:31:08.925Z,15.63
2019-05-15T22:33:17.885Z,15.53
2019-05-15T22:35:25.558Z,14.50
2019-05-15T22:37:33.225Z,14.93
2019-05-15T22:39:40.661Z,15.67
2019-05-15T22:41:48.305Z,15.37
2019-05-15T22:43:56.185Z,15.37
2019-05-15T22:46:03.813Z,15.73
2019-05-15T22:48:11.315Z,14.63
2019-05-15T22:50:19.236Z,15.50
2019-05-15T22:52:27.851Z,15.70
2019-05-15T22:54:35.465Z,15.17
2019-05-15T22:56:42.889Z,16.47
2019-05-15T22:58:50.360Z,16.30
2019-05-15T23:00:59.707Z,16.17
2019-05-15T23:03:08.382Z,16.00
2019-05-15T23:05:24.943Z,15.63
2019-05-15T23:07:25.384Z,15.40
2019-05-15T23:09:32.721Z,14.87
2019-05-15T23:11:40.556Z,14.63
2019-05-15T23:13:48.521Z,15.53
2019-05-15T23:15:58.256Z,15.47
2019-05-15T23:18:06.007Z,15.97
2019-05-15T23:20:13.867Z,15.20
2019-05-15T23:22:21.442Z,15.20
2019-05-15T23:24:29.238Z,14.40
2019-05-15T23:26:38.637Z,14.80
2019-05-15T23:28:47.939Z,14.80
2019-05-15T23:30:55.092Z,14.77
2019-05-15T23:33:02.575Z,14.63
2019-05-15T23:35:10.294Z,15.40
2019-05-15T23:37:17.836Z,16.00
2019-05-15T23:39:25.329Z,14.77
2019-05-15T23:41:32.745Z,14.70
2019-05-15T23:43:40.302Z,14.27
2019-05-15T23:45:48.350Z,14.27
2019-05-15T23:47:57.980Z,14.10
2019-05-15T23:50:06.063Z,14.13
2019-05-15T23:52:13.470Z,14.63
2019-05-15T23:54:20.974Z,13.87
2019-05-15T23:56:29.046Z,14.00
2019-05-15T23:58:38.084Z,14.53
